sensor_id;sensor_type;location;lat;lon;timestamp;P1;durP1;ratioP1;P2;durP2;ratioP2
11263;SDS011;5689;48.798;9.070;2023-07-22T00:00:49;0.00;;;0.00;;
11263;SDS011;5689;48.798;9.070;2023-07-22T00:03:17;0.10;;;0.10;;
11263;SDS011;5689;48.798;9.070;2023-07-22T00:05:45;0.10;;;0.10;;
11263;SDS011;5689;48.798;9.070;2023-07-22T00:08:13;0.10;;;0.10;;
11263;SDS011;5689;48.798;9.070;2023-07-22T00:10:41;0.10;;;0.10;;
11263;SDS011;5689;48.798;9.070;2023-07-22T00:13:10;0.10;;;0.10;;
11263;SDS011;5689;48.798;9.070;2023-07-22T00:15:40;0.10;;;0.10;;
11263;SDS011;5689;48.798;9.070;2023-07-22T00:18:08;0.13;;;0.13;;
11263;SDS011;5689;48.798;9.070;2023-07-22T00:20:36;0.10;;;0.10;;
11263;SDS011;5689;48.798;9.070;2023-07-22T00:23:04;0.20;;;0.20;;
11263;SDS011;5689;48.798;9.070;2023-07-22T00:25:32;0.10;;;0.10;;
11263;SDS011;5689;48.798;9.070;2023-07-22T00:28:00;0.10;;;0.10;;
11263;SDS011;5689;48.798;9.070;2023-07-22T00:30:29;0.10;;;0.10;;
11263;SDS011;5689;48.798;9.070;2023-07-22T00:32:58;0.20;;;0.20;;
11263;SDS011;5689;48.798;9.070;2023-07-22T00:35:26;0.10;;;0.10;;
11263;SDS011;5689;48.798;9.070;2023-07-22T00:37:54;0.20;;;0.20;;
11263;SDS011;5689;48.798;9.070;2023-07-22T00:40:22;0.20;;;0.20;;
11263;SDS011;5689;48.798;9.070;2023-07-22T00:42:51;0.10;;;0.10;;
11263;SDS011;5689;48.798;9.070;2023-07-22T00:45:19;0.10;;;0.10;;
11263;SDS011;5689;48.798;9.070;2023-07-22T00:47:47;0.10;;;0.10;;
11263;SDS011;5689;48.798;9.070;2023-07-22T00:50:16;0.20;;;0.20;;
11263;SDS011;5689;48.798;9.070;2023-07-22T00:52:44;0.10;;;0.10;;
11263;SDS011;5689;48.798;9.070;2023-07-22T00:55:12;0.10;;;0.10;;
11263;SDS011;5689;48.798;9.070;2023-07-22T00:57:41;0.10;;;0.10;;
11263;SDS011;5689;48.798;9.070;2023-07-22T01:00:09;0.13;;;0.13;;
11263;SDS011;5689;48.798;9.070;2023-07-22T01:02:38;0.10;;;0.10;;
11263;SDS011;5689;48.798;9.070;2023-07-22T01:05:07;0.20;;;0.20;;
11263;SDS011;5689;48.798;9.070;2023-07-22T01:07:38;0.20;;;0.20;;
11263;SDS011;5689;48.798;9.070;2023-07-22T01:10:07;0.20;;;0.20;;
11263;SDS011;5689;48.798;9.070;2023-07-22T01:12:35;0.10;;;0.10;;
11263;SDS011;5689;48.798;9.070;2023-07-22T01:15:05;0.20;;;0.20;;
11263;SDS011;5689;48.798;9.070;2023-07-22T01:17:35;0.20;;;0.20;;
11263;SDS011;5689;48.798;9.070;2023-07-22T01:20:05;0.20;;;0.20;;
11263;SDS011;5689;48.798;9.070;2023-07-22T01:22:35;0.20;;;0.20;;
11263;SDS011;5689;48.798;9.070;2023-07-22T01:25:06;0.20;;;0.20;;
11263;SDS011;5689;48.798;9.070;2023-07-22T01:27:35;0.10;;;0.10;;
11263;SDS011;5689;48.798;9.070;2023-07-22T01:30:03;0.20;;;0.20;;
11263;SDS011;5689;48.798;9.070;2023-07-22T01:32:33;0.20;;;0.20;;
11263;SDS011;5689;48.798;9.070;2023-07-22T01:35:01;0.20;;;0.20;;
11263;SDS011;5689;48.798;9.070;2023-07-22T01:37:29;0.10;;;0.10;;
11263;SDS011;5689;48.798;9.070;2023-07-22T01:39:58;0.10;;;0.10;;
11263;SDS011;5689;48.798;9.070;2023-07-22T01:42:27;0.10;;;0.10;;
11263;SDS011;5689;48.798;9.070;2023-07-22T01:44:55;0.10;;;0.10;;
11263;SDS011;5689;48.798;9.070;2023-07-22T01:47:23;0.20;;;0.20;;
11263;SDS011;5689;48.798;9.070;2023-07-22T01:49:52;0.20;;;0.20;;
11263;SDS011;5689;48.798;9.070;2023-07-22T01:52:20;0.20;;;0.20;;
11263;SDS011;5689;48.798;9.070;2023-07-22T01:54:48;0.20;;;0.20;;
11263;SDS011;5689;48.798;9.070;2023-07-22T01:57:16;0.10;;;0.10;;
11263;SDS011;5689;48.798;9.070;2023-07-22T01:59:46;0.00;;;0.00;;
11263;SDS011;5689;48.798;9.070;2023-07-22T02:02:14;0.00;;;0.00;;
11263;SDS011;5689;48.798;9.070;2023-07-22T02:04:42;0.10;;;0.10;;
11263;SDS011;5689;48.798;9.070;2023-07-22T02:07:10;0.10;;;0.10;;
11263;SDS011;5689;48.798;9.070;2023-07-22T02:09:38;0.00;;;0.00;;
11263;SDS011;5689;48.798;9.070;2023-07-22T02:12:07;0.10;;;0.10;;
11263;SDS011;5689;48.798;9.070;2023-07-22T02:14:36;0.10;;;0.10;;
11263;SDS011;5689;48.798;9.070;2023-07-22T02:17:06;0.10;;;0.10;;
11263;SDS011;5689;48.798;9.070;2023-07-22T02:19:36;0.20;;;0.20;;
11263;SDS011;5689;48.798;9.070;2023-07-22T02:22:04;0.20;;;0.20;;
11263;SDS011;5689;48.798;9.070;2023-07-22T02:24:32;0.20;;;0.20;;
11263;SDS011;5689;48.798;9.070;2023-07-22T02:27:00;0.17;;;0.17;;
11263;SDS011;5689;48.798;9.070;2023-07-22T02:29:28;0.20;;;0.20;;
11263;SDS011;5689;48.798;9.070;2023-07-22T02:31:57;0.20;;;0.20;;
11263;SDS011;5689;48.798;9.070;2023-07-22T02:34:27;0.10;;;0.10;;
11263;SDS011;5689;48.798;9.070;2023-07-22T02:36:55;0.10;;;0.10;;
11263;SDS011;5689;48.798;9.070;2023-07-22T02:39:23;0.20;;;0.20;;
11263;SDS011;5689;48.798;9.070;2023-07-22T02:41:51;0.10;;;0.10;;
11263;SDS011;5689;48.798;9.070;2023-07-22T02:44:19;0.20;;;0.20;;
11263;SDS011;5689;48.798;9.070;2023-07-22T02:46:47;0.20;;;0.20;;
11263;SDS011;5689;48.798;9.070;2023-07-22T02:49:16;0.20;;;0.20;;
11263;SDS011;5689;48.798;9.070;2023-07-22T02:51:45;0.20;;;0.20;;
11263;SDS011;5689;48.798;9.070;2023-07-22T02:54:13;0.20;;;0.20;;
11263;SDS011;5689;48.798;9.070;2023-07-22T02:56:41;0.10;;;0.10;;
11263;SDS011;5689;48.798;9.070;2023-07-22T02:59:09;0.20;;;0.20;;
11263;SDS011;5689;48.798;9.070;2023-07-22T03:01:37;0.20;;;0.20;;
11263;SDS011;5689;48.798;9.070;2023-07-22T03:04:05;0.20;;;0.20;;
11263;SDS011;5689;48.798;9.070;2023-07-22T03:06:33;0.20;;;0.20;;
11263;SDS011;5689;48.798;9.070;2023-07-22T03:09:03;0.10;;;0.10;;
11263;SDS011;5689;48.798;9.070;2023-07-22T03:11:33;0.20;;;0.20;;
11263;SDS011;5689;48.798;9.070;2023-07-22T03:14:01;0.20;;;0.20;;
11263;SDS011;5689;48.798;9.070;2023-07-22T03:16:29;0.20;;;0.20;;
11263;SDS011;5689;48.798;9.070;2023-07-22T03:18:58;0.10;;;0.10;;
11263;SDS011;5689;48.798;9.070;2023-07-22T03:21:26;0.20;;;0.20;;
11263;SDS011;5689;48.798;9.070;2023-07-22T03:23:54;0.10;;;0.10;;
11263;SDS011;5689;48.798;9.070;2023-07-22T03:26:23;0.17;;;0.17;;
11263;SDS011;5689;48.798;9.070;2023-07-22T03:28:51;0.10;;;0.10;;
11263;SDS011;5689;48.798;9.070;2023-07-22T03:31:19;0.10;;;0.10;;
11263;SDS011;5689;48.798;9.070;2023-07-22T03:33:47;0.10;;;0.10;;
11263;SDS011;5689;48.798;9.070;2023-07-22T03:36:16;0.20;;;0.20;;
11263;SDS011;5689;48.798;9.070;2023-07-22T03:38:44;0.20;;;0.20;;
11263;SDS011;5689;48.798;9.070;2023-07-22T03:41:12;0.20;;;0.20;;
11263;SDS011;5689;48.798;9.070;2023-07-22T03:43:41;0.20;;;0.20;;
11263;SDS011;5689;48.798;9.070;2023-07-22T03:46:09;0.20;;;0.20;;
11263;SDS011;5689;48.798;9.070;2023-07-22T03:48:37;0.13;;;0.13;;
11263;SDS011;5689;48.798;9.070;2023-07-22T03:51:05;0.10;;;0.10;;
11263;SDS011;5689;48.798;9.070;2023-07-22T03:53:42;0.20;;;0.20;;
11263;SDS011;5689;48.798;9.070;2023-07-22T03:56:10;0.20;;;0.20;;
11263;SDS011;5689;48.798;9.070;2023-07-22T03:58:38;0.10;;;0.10;;
11263;SDS011;5689;48.798;9.070;2023-07-22T04:01:07;0.20;;;0.20;;
11263;SDS011;5689;48.798;9.070;2023-07-22T04:03:38;0.10;;;0.10;;
11263;SDS011;5689;48.798;9.070;2023-07-22T04:06:06;0.20;;;0.20;;
11263;SDS011;5689;48.798;9.070;2023-07-22T04:08:33;0.20;;;0.20;;
11263;SDS011;5689;48.798;9.070;2023-07-22T04:11:02;0.10;;;0.10;;
11263;SDS011;5689;48.798;9.070;2023-07-22T04:13:30;0.10;;;0.10;;
11263;SDS011;5689;48.798;9.070;2023-07-22T04:15:58;0.10;;;0.10;;
11263;SDS011;5689;48.798;9.070;2023-07-22T04:18:28;0.20;;;0.20;;
11263;SDS011;5689;48.798;9.070;2023-07-22T04:21:00;0.10;;;0.10;;
11263;SDS011;5689;48.798;9.070;2023-07-22T04:23:28;0.10;;;0.10;;
11263;SDS011;5689;48.798;9.070;2023-07-22T04:26:01;0.10;;;0.10;;
11263;SDS011;5689;48.798;9.070;2023-07-22T04:28:31;0.10;;;0.10;;
11263;SDS011;5689;48.798;9.070;2023-07-22T04:30:59;0.10;;;0.10;;
11263;SDS011;5689;48.798;9.070;2023-07-22T04:33:28;0.10;;;0.10;;
11263;SDS011;5689;48.798;9.070;2023-07-22T04:35:57;0.15;;;0.15;;
11263;SDS011;5689;48.798;9.070;2023-07-22T04:38:27;0.10;;;0.10;;
11263;SDS011;5689;48.798;9.070;2023-07-22T04:40:55;0.15;;;0.15;;
11263;SDS011;5689;48.798;9.070;2023-07-22T04:43:23;0.10;;;0.10;;
11263;SDS011;5689;48.798;9.070;2023-07-22T04:45:51;0.10;;;0.10;;
11263;SDS011;5689;48.798;9.070;2023-07-22T04:48:19;0.10;;;0.10;;
11263;SDS011;5689;48.798;9.070;2023-07-22T04:50:50;0.10;;;0.10;;
11263;SDS011;5689;48.798;9.070;2023-07-22T04:53:18;0.20;;;0.20;;
11263;SDS011;5689;48.798;9.070;2023-07-22T04:55:46;0.20;;;0.20;;
11263;SDS011;5689;48.798;9.070;2023-07-22T04:58:14;0.10;;;0.10;;
11263;SDS011;5689;48.798;9.070;2023-07-22T05:00:42;0.10;;;0.10;;
11263;SDS011;5689;48.798;9.070;2023-07-22T05:03:10;0.10;;;0.10;;
11263;SDS011;5689;48.798;9.070;2023-07-22T05:05:38;0.10;;;0.10;;
11263;SDS011;5689;48.798;9.070;2023-07-22T05:08:07;0.10;;;0.10;;
11263;SDS011;5689;48.798;9.070;2023-07-22T05:10:36;0.10;;;0.10;;
11263;SDS011;5689;48.798;9.070;2023-07-22T05:13:04;0.10;;;0.10;;
11263;SDS011;5689;48.798;9.070;2023-07-22T05:15:33;0.10;;;0.10;;
11263;SDS011;5689;48.798;9.070;2023-07-22T05:18:00;0.10;;;0.10;;
11263;SDS011;5689;48.798;9.070;2023-07-22T05:20:29;0.10;;;0.10;;
11263;SDS011;5689;48.798;9.070;2023-07-22T05:22:57;0.10;;;0.10;;
11263;SDS011;5689;48.798;9.070;2023-07-22T05:25:26;0.10;;;0.10;;
11263;SDS011;5689;48.798;9.070;2023-07-22T05:27:54;0.10;;;0.10;;
11263;SDS011;5689;48.798;9.070;2023-07-22T05:30:22;0.10;;;0.10;;
11263;SDS011;5689;48.798;9.070;2023-07-22T05:32:58;0.10;;;0.10;;
11263;SDS011;5689;48.798;9.070;2023-07-22T05:35:26;0.20;;;0.20;;
11263;SDS011;5689;48.798;9.070;2023-07-22T05:37:54;0.10;;;0.10;;
11263;SDS011;5689;48.798;9.070;2023-07-22T05:40:22;0.10;;;0.10;;
11263;SDS011;5689;48.798;9.070;2023-07-22T05:42:51;0.10;;;0.10;;
11263;SDS011;5689;48.798;9.070;2023-07-22T05:45:20;0.10;;;0.10;;
11263;SDS011;5689;48.798;9.070;2023-07-22T05:47:48;0.10;;;0.10;;
11263;SDS011;5689;48.798;9.070;2023-07-22T05:50:16;0.10;;;0.10;;
11263;SDS011;5689;48.798;9.070;2023-07-22T05:52:44;0.10;;;0.10;;
11263;SDS011;5689;48.798;9.070;2023-07-22T05:55:12;0.17;;;0.17;;
11263;SDS011;5689;48.798;9.070;2023-07-22T05:57:41;0.10;;;0.10;;
11263;SDS011;5689;48.798;9.070;2023-07-22T06:00:11;0.10;;;0.10;;
11263;SDS011;5689;48.798;9.070;2023-07-22T06:02:40;0.10;;;0.10;;
11263;SDS011;5689;48.798;9.070;2023-07-22T06:05:08;0.10;;;0.10;;
11263;SDS011;5689;48.798;9.070;2023-07-22T06:07:37;0.10;;;0.10;;
11263;SDS011;5689;48.798;9.070;2023-07-22T06:10:05;0.10;;;0.10;;
11263;SDS011;5689;48.798;9.070;2023-07-22T06:12:34;0.10;;;0.10;;
11263;SDS011;5689;48.798;9.070;2023-07-22T06:15:02;0.10;;;0.10;;
11263;SDS011;5689;48.798;9.070;2023-07-22T06:17:32;0.05;;;0.05;;
11263;SDS011;5689;48.798;9.070;2023-07-22T06:20:00;0.10;;;0.10;;
11263;SDS011;5689;48.798;9.070;2023-07-22T06:22:28;0.10;;;0.10;;
11263;SDS011;5689;48.798;9.070;2023-07-22T06:24:56;0.10;;;0.10;;
11263;SDS011;5689;48.798;9.070;2023-07-22T06:27:24;0.10;;;0.10;;
11263;SDS011;5689;48.798;9.070;2023-07-22T06:29:52;0.10;;;0.10;;
11263;SDS011;5689;48.798;9.070;2023-07-22T06:32:21;0.00;;;0.00;;
11263;SDS011;5689;48.798;9.070;2023-07-22T06:34:50;0.10;;;0.10;;
11263;SDS011;5689;48.798;9.070;2023-07-22T06:37:18;0.10;;;0.10;;
11263;SDS011;5689;48.798;9.070;2023-07-22T06:39:46;0.08;;;0.08;;
11263;SDS011;5689;48.798;9.070;2023-07-22T06:42:14;0.10;;;0.10;;
11263;SDS011;5689;48.798;9.070;2023-07-22T06:44:42;0.10;;;0.10;;
11263;SDS011;5689;48.798;9.070;2023-07-22T06:47:11;0.05;;;0.05;;
11263;SDS011;5689;48.798;9.070;2023-07-22T06:49:39;0.10;;;0.10;;
11263;SDS011;5689;48.798;9.070;2023-07-22T06:52:09;0.10;;;0.10;;
11263;SDS011;5689;48.798;9.070;2023-07-22T06:54:37;0.00;;;0.00;;
11263;SDS011;5689;48.798;9.070;2023-07-22T06:57:05;0.10;;;0.10;;
11263;SDS011;5689;48.798;9.070;2023-07-22T06:59:33;0.10;;;0.10;;
11263;SDS011;5689;48.798;9.070;2023-07-22T07:02:02;0.00;;;0.00;;
11263;SDS011;5689;48.798;9.070;2023-07-22T07:04:32;0.10;;;0.10;;
11263;SDS011;5689;48.798;9.070;2023-07-22T07:07:00;0.10;;;0.10;;
11263;SDS011;5689;48.798;9.070;2023-07-22T07:09:30;0.00;;;0.00;;
11263;SDS011;5689;48.798;9.070;2023-07-22T07:11:58;0.10;;;0.10;;
11263;SDS011;5689;48.798;9.070;2023-07-22T07:14:26;0.00;;;0.00;;
11263;SDS011;5689;48.798;9.070;2023-07-22T07:16:54;0.00;;;0.00;;
11263;SDS011;5689;48.798;9.070;2023-07-22T07:19:22;0.00;;;0.00;;
11263;SDS011;5689;48.798;9.070;2023-07-22T07:21:50;0.00;;;0.00;;
11263;SDS011;5689;48.798;9.070;2023-07-22T07:24:18;0.00;;;0.00;;
11263;SDS011;5689;48.798;9.070;2023-07-22T07:26:47;0.00;;;0.00;;
11263;SDS011;5689;48.798;9.070;2023-07-22T07:29:15;0.00;;;0.00;;
11263;SDS011;5689;48.798;9.070;2023-07-22T07:31:49;0.00;;;0.00;;
11263;SDS011;5689;48.798;9.070;2023-07-22T07:34:17;0.00;;;0.00;;
11263;SDS011;5689;48.798;9.070;2023-07-22T07:36:45;0.00;;;0.00;;
11263;SDS011;5689;48.798;9.070;2023-07-22T07:39:15;0.00;;;0.00;;
11263;SDS011;5689;48.798;9.070;2023-07-22T07:41:43;0.00;;;0.00;;
11263;SDS011;5689;48.798;9.070;2023-07-22T07:44:12;0.00;;;0.00;;
11263;SDS011;5689;48.798;9.070;2023-07-22T07:46:40;0.00;;;0.00;;
11263;SDS011;5689;48.798;9.070;2023-07-22T07:49:09;0.00;;;0.00;;
11263;SDS011;5689;48.798;9.070;2023-07-22T07:51:36;0.00;;;0.00;;
11263;SDS011;5689;48.798;9.070;2023-07-22T07:54:04;0.00;;;0.00;;
11263;SDS011;5689;48.798;9.070;2023-07-22T07:56:33;0.00;;;0.00;;
11263;SDS011;5689;48.798;9.070;2023-07-22T07:59:01;0.00;;;0.00;;
11263;SDS011;5689;48.798;9.070;2023-07-22T08:01:32;0.00;;;0.00;;
11263;SDS011;5689;48.798;9.070;2023-07-22T08:04:01;0.00;;;0.00;;
11263;SDS011;5689;48.798;9.070;2023-07-22T08:06:30;0.00;;;0.00;;
11263;SDS011;5689;48.798;9.070;2023-07-22T08:08:59;0.00;;;0.00;;
11263;SDS011;5689;48.798;9.070;2023-07-22T08:11:27;0.00;;;0.00;;
11263;SDS011;5689;48.798;9.070;2023-07-22T08:13:55;0.00;;;0.00;;
11263;SDS011;5689;48.798;9.070;2023-07-22T08:16:23;0.00;;;0.00;;
11263;SDS011;5689;48.798;9.070;2023-07-22T08:18:53;0.00;;;0.00;;
11263;SDS011;5689;48.798;9.070;2023-07-22T08:21:21;0.00;;;0.00;;
11263;SDS011;5689;48.798;9.070;2023-07-22T08:23:49;0.00;;;0.00;;
11263;SDS011;5689;48.798;9.070;2023-07-22T08:26:17;0.00;;;0.00;;
11263;SDS011;5689;48.798;9.070;2023-07-22T08:28:47;0.00;;;0.00;;
11263;SDS011;5689;48.798;9.070;2023-07-22T08:31:15;0.00;;;0.00;;
11263;SDS011;5689;48.798;9.070;2023-07-22T08:33:43;0.00;;;0.00;;
11263;SDS011;5689;48.798;9.070;2023-07-22T08:36:13;0.10;;;0.10;;
11263;SDS011;5689;48.798;9.070;2023-07-22T08:38:41;0.10;;;0.10;;
11263;SDS011;5689;48.798;9.070;2023-07-22T08:41:13;0.00;;;0.00;;
11263;SDS011;5689;48.798;9.070;2023-07-22T08:43:41;0.00;;;0.00;;
11263;SDS011;5689;48.798;9.070;2023-07-22T08:46:12;0.10;;;0.10;;
11263;SDS011;5689;48.798;9.070;2023-07-22T08:48:41;0.00;;;0.00;;
11263;SDS011;5689;48.798;9.070;2023-07-22T08:51:15;0.00;;;0.00;;
11263;SDS011;5689;48.798;9.070;2023-07-22T08:53:45;0.00;;;0.00;;
11263;SDS011;5689;48.798;9.070;2023-07-22T08:56:22;0.00;;;0.00;;
11263;SDS011;5689;48.798;9.070;2023-07-22T08:58:51;0.00;;;0.00;;
11263;SDS011;5689;48.798;9.070;2023-07-22T09:01:20;0.00;;;0.00;;
11263;SDS011;5689;48.798;9.070;2023-07-22T09:03:49;0.00;;;0.00;;
11263;SDS011;5689;48.798;9.070;2023-07-22T09:06:20;0.00;;;0.00;;
11263;SDS011;5689;48.798;9.070;2023-07-22T09:08:48;0.00;;;0.00;;
11263;SDS011;5689;48.798;9.070;2023-07-22T09:11:17;0.00;;;0.00;;
11263;SDS011;5689;48.798;9.070;2023-07-22T09:13:47;0.10;;;0.10;;
11263;SDS011;5689;48.798;9.070;2023-07-22T09:16:17;0.00;;;0.00;;
11263;SDS011;5689;48.798;9.070;2023-07-22T09:18:47;0.05;;;0.05;;
11263;SDS011;5689;48.798;9.070;2023-07-22T09:21:15;0.10;;;0.10;;
11263;SDS011;5689;48.798;9.070;2023-07-22T09:23:44;0.10;;;0.10;;
11263;SDS011;5689;48.798;9.070;2023-07-22T09:26:13;0.00;;;0.00;;
11263;SDS011;5689;48.798;9.070;2023-07-22T09:28:49;0.00;;;0.00;;
11263;SDS011;5689;48.798;9.070;2023-07-22T09:31:18;0.00;;;0.00;;
11263;SDS011;5689;48.798;9.070;2023-07-22T09:33:46;0.03;;;0.03;;
11263;SDS011;5689;48.798;9.070;2023-07-22T09:36:14;0.00;;;0.00;;
11263;SDS011;5689;48.798;9.070;2023-07-22T09:38:44;0.00;;;0.00;;
11263;SDS011;5689;48.798;9.070;2023-07-22T09:41:13;0.10;;;0.10;;
11263;SDS011;5689;48.798;9.070;2023-07-22T09:43:46;0.00;;;0.00;;
11263;SDS011;5689;48.798;9.070;2023-07-22T09:46:15;0.00;;;0.00;;
11263;SDS011;5689;48.798;9.070;2023-07-22T09:48:50;0.00;;;0.00;;
11263;SDS011;5689;48.798;9.070;2023-07-22T09:51:19;0.00;;;0.00;;
11263;SDS011;5689;48.798;9.070;2023-07-22T09:54:02;0.00;;;0.00;;
11263;SDS011;5689;48.798;9.070;2023-07-22T09:56:32;0.03;;;0.03;;
11263;SDS011;5689;48.798;9.070;2023-07-22T09:59:10;0.00;;;0.00;;
11263;SDS011;5689;48.798;9.070;2023-07-22T10:01:39;0.00;;;0.00;;
11263;SDS011;5689;48.798;9.070;2023-07-22T10:04:08;0.00;;;0.00;;
11263;SDS011;5689;48.798;9.070;2023-07-22T10:06:38;0.00;;;0.00;;
11263;SDS011;5689;48.798;9.070;2023-07-22T10:09:11;0.00;;;0.00;;
11263;SDS011;5689;48.798;9.070;2023-07-22T10:11:40;0.00;;;0.00;;
11263;SDS011;5689;48.798;9.070;2023-07-22T10:14:09;0.00;;;0.00;;
11263;SDS011;5689;48.798;9.070;2023-07-22T10:16:39;0.00;;;0.00;;
11263;SDS011;5689;48.798;9.070;2023-07-22T10:19:07;0.10;;;0.10;;
11263;SDS011;5689;48.798;9.070;2023-07-22T10:21:37;0.10;;;0.10;;
11263;SDS011;5689;48.798;9.070;2023-07-22T10:24:06;0.10;;;0.10;;
11263;SDS011;5689;48.798;9.070;2023-07-22T10:26:36;0.10;;;0.10;;
11263;SDS011;5689;48.798;9.070;2023-07-22T10:29:10;0.00;;;0.00;;
11263;SDS011;5689;48.798;9.070;2023-07-22T10:31:38;0.00;;;0.00;;
11263;SDS011;5689;48.798;9.070;2023-07-22T10:34:07;0.00;;;0.00;;
11263;SDS011;5689;48.798;9.070;2023-07-22T10:36:35;0.00;;;0.00;;
11263;SDS011;5689;48.798;9.070;2023-07-22T10:39:03;0.00;;;0.00;;
11263;SDS011;5689;48.798;9.070;2023-07-22T10:41:32;0.00;;;0.00;;
11263;SDS011;5689;48.798;9.070;2023-07-22T10:44:06;0.10;;;0.10;;
11263;SDS011;5689;48.798;9.070;2023-07-22T10:46:38;0.05;;;0.05;;
11263;SDS011;5689;48.798;9.070;2023-07-22T10:49:10;0.00;;;0.00;;
11263;SDS011;5689;48.798;9.070;2023-07-22T10:51:39;0.10;;;0.10;;
11263;SDS011;5689;48.798;9.070;2023-07-22T10:54:10;0.00;;;0.00;;
11263;SDS011;5689;48.798;9.070;2023-07-22T10:56:40;0.00;;;0.00;;
11263;SDS011;5689;48.798;9.070;2023-07-22T10:59:11;0.00;;;0.00;;
11263;SDS011;5689;48.798;9.070;2023-07-22T11:01:40;0.00;;;0.00;;
11263;SDS011;5689;48.798;9.070;2023-07-22T11:04:22;0.00;;;0.00;;
11263;SDS011;5689;48.798;9.070;2023-07-22T11:07:05;0.00;;;0.00;;
11263;SDS011;5689;48.798;9.070;2023-07-22T11:09:39;0.00;;;0.00;;
11263;SDS011;5689;48.798;9.070;2023-07-22T11:12:13;0.00;;;0.00;;
11263;SDS011;5689;48.798;9.070;2023-07-22T11:14:48;0.00;;;0.00;;
11263;SDS011;5689;48.798;9.070;2023-07-22T11:17:17;0.00;;;0.00;;
11263;SDS011;5689;48.798;9.070;2023-07-22T11:19:54;0.00;;;0.00;;
11263;SDS011;5689;48.798;9.070;2023-07-22T11:22:22;0.00;;;0.00;;
11263;SDS011;5689;48.798;9.070;2023-07-22T11:24:51;0.10;;;0.10;;
11263;SDS011;5689;48.798;9.070;2023-07-22T11:27:20;0.00;;;0.00;;
11263;SDS011;5689;48.798;9.070;2023-07-22T11:29:50;0.00;;;0.00;;
11263;SDS011;5689;48.798;9.070;2023-07-22T11:32:19;0.00;;;0.00;;
11263;SDS011;5689;48.798;9.070;2023-07-22T11:34:51;0.00;;;0.00;;
11263;SDS011;5689;48.798;9.070;2023-07-22T11:37:20;0.00;;;0.00;;
11263;SDS011;5689;48.798;9.070;2023-07-22T11:39:48;0.00;;;0.00;;
11263;SDS011;5689;48.798;9.070;2023-07-22T11:42:16;0.00;;;0.00;;
11263;SDS011;5689;48.798;9.070;2023-07-22T11:44:44;0.00;;;0.00;;
11263;SDS011;5689;48.798;9.070;2023-07-22T11:47:14;0.00;;;0.00;;
11263;SDS011;5689;48.798;9.070;2023-07-22T11:49:46;0.00;;;0.00;;
11263;SDS011;5689;48.798;9.070;2023-07-22T11:52:15;0.00;;;0.00;;
11263;SDS011;5689;48.798;9.070;2023-07-22T11:54:45;0.00;;;0.00;;
11263;SDS011;5689;48.798;9.070;2023-07-22T11:57:14;0.00;;;0.00;;
11263;SDS011;5689;48.798;9.070;2023-07-22T11:59:43;0.00;;;0.00;;
11263;SDS011;5689;48.798;9.070;2023-07-22T12:02:14;0.00;;;0.00;;
11263;SDS011;5689;48.798;9.070;2023-07-22T12:04:43;0.00;;;0.00;;
11263;SDS011;5689;48.798;9.070;2023-07-22T12:07:21;0.00;;;0.00;;
11263;SDS011;5689;48.798;9.070;2023-07-22T12:09:51;0.00;;;0.00;;
11263;SDS011;5689;48.798;9.070;2023-07-22T12:12:20;0.00;;;0.00;;
11263;SDS011;5689;48.798;9.070;2023-07-22T12:14:48;0.00;;;0.00;;
11263;SDS011;5689;48.798;9.070;2023-07-22T12:17:18;0.00;;;0.00;;
11263;SDS011;5689;48.798;9.070;2023-07-22T12:19:52;0.00;;;0.00;;
11263;SDS011;5689;48.798;9.070;2023-07-22T12:22:21;0.00;;;0.00;;
11263;SDS011;5689;48.798;9.070;2023-07-22T12:24:49;0.00;;;0.00;;
11263;SDS011;5689;48.798;9.070;2023-07-22T12:27:17;0.00;;;0.00;;
11263;SDS011;5689;48.798;9.070;2023-07-22T12:29:45;0.00;;;0.00;;
11263;SDS011;5689;48.798;9.070;2023-07-22T12:32:13;0.00;;;0.00;;
11263;SDS011;5689;48.798;9.070;2023-07-22T12:34:43;0.00;;;0.00;;
11263;SDS011;5689;48.798;9.070;2023-07-22T12:37:11;0.00;;;0.00;;
11263;SDS011;5689;48.798;9.070;2023-07-22T12:39:39;0.10;;;0.10;;
11263;SDS011;5689;48.798;9.070;2023-07-22T12:42:07;0.10;;;0.10;;
11263;SDS011;5689;48.798;9.070;2023-07-22T12:44:36;0.00;;;0.00;;
11263;SDS011;5689;48.798;9.070;2023-07-22T12:47:04;0.00;;;0.00;;
11263;SDS011;5689;48.798;9.070;2023-07-22T12:49:32;0.00;;;0.00;;
11263;SDS011;5689;48.798;9.070;2023-07-22T12:52:02;0.00;;;0.00;;
11263;SDS011;5689;48.798;9.070;2023-07-22T12:54:34;0.00;;;0.00;;
11263;SDS011;5689;48.798;9.070;2023-07-22T12:57:02;0.00;;;0.00;;
11263;SDS011;5689;48.798;9.070;2023-07-22T12:59:30;0.00;;;0.00;;
11263;SDS011;5689;48.798;9.070;2023-07-22T13:01:58;0.00;;;0.00;;
11263;SDS011;5689;48.798;9.070;2023-07-22T13:04:26;0.00;;;0.00;;
11263;SDS011;5689;48.798;9.070;2023-07-22T13:06:54;0.10;;;0.10;;
11263;SDS011;5689;48.798;9.070;2023-07-22T13:09:24;0.00;;;0.00;;
11263;SDS011;5689;48.798;9.070;2023-07-22T13:11:52;0.00;;;0.00;;
11263;SDS011;5689;48.798;9.070;2023-07-22T13:14:20;0.00;;;0.00;;
11263;SDS011;5689;48.798;9.070;2023-07-22T13:16:48;0.00;;;0.00;;
11263;SDS011;5689;48.798;9.070;2023-07-22T13:19:16;0.00;;;0.00;;
11263;SDS011;5689;48.798;9.070;2023-07-22T13:21:44;0.00;;;0.00;;
11263;SDS011;5689;48.798;9.070;2023-07-22T13:24:12;0.00;;;0.00;;
11263;SDS011;5689;48.798;9.070;2023-07-22T13:26:42;0.00;;;0.00;;
11263;SDS011;5689;48.798;9.070;2023-07-22T13:29:09;0.00;;;0.00;;
11263;SDS011;5689;48.798;9.070;2023-07-22T13:31:38;0.00;;;0.00;;
11263;SDS011;5689;48.798;9.070;2023-07-22T13:34:06;0.00;;;0.00;;
11263;SDS011;5689;48.798;9.070;2023-07-22T13:36:34;0.00;;;0.00;;
11263;SDS011;5689;48.798;9.070;2023-07-22T13:39:02;0.00;;;0.00;;
11263;SDS011;5689;48.798;9.070;2023-07-22T13:41:30;0.00;;;0.00;;
11263;SDS011;5689;48.798;9.070;2023-07-22T13:44:00;0.00;;;0.00;;
11263;SDS011;5689;48.798;9.070;2023-07-22T13:46:29;0.00;;;0.00;;
11263;SDS011;5689;48.798;9.070;2023-07-22T13:48:57;0.00;;;0.00;;
11263;SDS011;5689;48.798;9.070;2023-07-22T13:51:25;0.00;;;0.00;;
11263;SDS011;5689;48.798;9.070;2023-07-22T13:53:53;0.10;;;0.10;;
11263;SDS011;5689;48.798;9.070;2023-07-22T13:56:21;0.00;;;0.00;;
11263;SDS011;5689;48.798;9.070;2023-07-22T13:58:49;0.00;;;0.00;;
11263;SDS011;5689;48.798;9.070;2023-07-22T14:01:20;0.00;;;0.00;;
11263;SDS011;5689;48.798;9.070;2023-07-22T14:03:48;0.00;;;0.00;;
11263;SDS011;5689;48.798;9.070;2023-07-22T14:06:16;0.00;;;0.00;;
11263;SDS011;5689;48.798;9.070;2023-07-22T14:08:44;0.00;;;0.00;;
11263;SDS011;5689;48.798;9.070;2023-07-22T14:11:11;0.00;;;0.00;;
11263;SDS011;5689;48.798;9.070;2023-07-22T14:13:40;0.00;;;0.00;;
11263;SDS011;5689;48.798;9.070;2023-07-22T14:16:08;0.00;;;0.00;;
11263;SDS011;5689;48.798;9.070;2023-07-22T14:18:47;0.00;;;0.00;;
11263;SDS011;5689;48.798;9.070;2023-07-22T14:21:15;0.00;;;0.00;;
11263;SDS011;5689;48.798;9.070;2023-07-22T14:23:43;0.00;;;0.00;;
11263;SDS011;5689;48.798;9.070;2023-07-22T14:26:11;0.00;;;0.00;;
11263;SDS011;5689;48.798;9.070;2023-07-22T14:28:39;0.00;;;0.00;;
11263;SDS011;5689;48.798;9.070;2023-07-22T14:31:07;0.00;;;0.00;;
11263;SDS011;5689;48.798;9.070;2023-07-22T14:33:35;0.00;;;0.00;;
11263;SDS011;5689;48.798;9.070;2023-07-22T14:36:05;0.00;;;0.00;;
11263;SDS011;5689;48.798;9.070;2023-07-22T14:38:37;0.00;;;0.00;;
11263;SDS011;5689;48.798;9.070;2023-07-22T14:41:11;0.00;;;0.00;;
11263;SDS011;5689;48.798;9.070;2023-07-22T14:43:49;0.00;;;0.00;;
11263;SDS011;5689;48.798;9.070;2023-07-22T14:46:20;0.00;;;0.00;;
11263;SDS011;5689;48.798;9.070;2023-07-22T14:48:53;0.00;;;0.00;;
11263;SDS011;5689;48.798;9.070;2023-07-22T14:51:23;0.00;;;0.00;;
11263;SDS011;5689;48.798;9.070;2023-07-22T14:53:51;0.00;;;0.00;;
11263;SDS011;5689;48.798;9.070;2023-07-22T14:56:19;0.00;;;0.00;;
11263;SDS011;5689;48.798;9.070;2023-07-22T14:58:47;0.00;;;0.00;;
11263;SDS011;5689;48.798;9.070;2023-07-22T15:01:15;0.00;;;0.00;;
11263;SDS011;5689;48.798;9.070;2023-07-22T15:03:44;0.00;;;0.00;;
11263;SDS011;5689;48.798;9.070;2023-07-22T15:06:12;0.00;;;0.00;;
11263;SDS011;5689;48.798;9.070;2023-07-22T15:08:41;0.00;;;0.00;;
11263;SDS011;5689;48.798;9.070;2023-07-22T15:11:09;0.00;;;0.00;;